x

Neah Bay, - 6nm North Of Cape Flattery, Wa (traffic Separation Lighted Buoy) (46087) Wave Buoy

7:50 - Fri 6th May 2016 All times are PDT. -7 hours from GMT.

  • Sig Wave height 5.6ft
  • Swell Direction
  • Peak Period 9s
  • Average Period 8s
  • Wind
    9mph, 11mph gusts
  • Sea Temp 52°f
  • Aire Temp 52°f
  • Sea Pressure 1019.6mb
  • Neah Bay, - 6nm North Of Cape Flattery, Wa     (traffic Separation Lighted Buoy)
  • Neah Bay, - 6nm North Of Cape Flattery, Wa     (traffic Separation Lighted Buoy)

More Historic Weather Station data

Upgrade to MSW Pro to gain access to the past 30 days of data for over 8000 Wavebouys and Weather Stations around the globe.

Join Pro

Comparision Forecast

View Surf forecast
   
vie 05/06 7:50 5.5ft 9s 8s 9 11 mph 1019.6mb 52f 52f
7:20 5ft 9s 8s 9 11 mph 1019.4mb 52f 52f
6:20 5ft 9s 7s 7 9 mph 1019.2mb 52f 53f
5:50 5ft 10s 7s 4 9 mph 1019.2mb 52f 51f
5:20 5ft 8s 7s  -  2 mph 1019.1mb 52f 52f
4:50 5ft 9s 7s 4
mph
1018.9mb 52f 52f
4:20 5ft 8s 6s 4
mph
1019mb 52f 52f
3:50 5ft 8s 7s 7 9 mph 1018.9mb 52f 53f
3:20 5ft 8s 7s 7 9 mph 1018.9mb 52f 53f
2:50 5ft 7s 7s 7
mph
1018.7mb 52f 53f
2:20 5ft 8s 7s 7 9 mph 1018.6mb 53f 53f
1:50 5ft 8s 6s 7 9 mph 1018.4mb 53f 53f
1:20 5ft 8s 6s 7 9 mph 1018.1mb 53f 53f
12:50 5.5ft 7s 6s 2 4 mph 1017.9mb 53f 53f
12:20 5ft 8s 6s 2 4 mph 1017.7mb 53f 53f
jue 05/05 11:50 5ft 8s 6s 7 9 mph 1017.6mb 53f 54f
11:20 5ft 8s 6s 7 9 mph 1017.6mb 53f 54f
10:50 5ft 7s 6s 4 7 mph 1017.7mb 53f 53f
10:20 5.5ft 9s 6s 2 4 mph 1017.6mb 53f 53f
9:50 5ft 9s 6s 9
mph
1017.5mb 53f 55f
9:20 5ft 9s 6s 9 13 mph 1017.8mb 53f 56f
8:50 5ft 8s 7s 9 11 mph 1017.8mb 53f 56f
8:20 4.5ft 8s 7s 4 9 mph 1017.9mb 54f 56f
7:50 4.5ft 8s 7s 4 7 mph 1017.7mb 54f 56f
7:20 4.5ft 8s 7s 4 7 mph 1017.4mb 55f 56f
6:50 4.5ft 8s 7s 4 7 mph 1017.4mb 55f 56f
6:20 5ft 9s 7s 4 7 mph 1017.4mb 55f 56f
5:50 5ft 10s 7s 4 9 mph 1017.5mb 54f 56f
5:20 5ft 10s 7s 7 9 mph 1017.3mb 54f 55f
4:50 5.5ft 8s 7s 7 9 mph 1017.3mb 54f 55f
4:20 5.5ft 10s 7s 9 13 mph 1017.4mb 54f 55f
3:50 5.5ft 8s 7s 7 9 mph 1017.6mb 54f 54f
3:20 6ft 8s 7s 7 9 mph 1017.7mb 54f 54f
2:50 6ft 8s 7s 9 11 mph 1017.6mb 54f 53f
2:20 6.5ft 8s 7s 9 11 mph 1017.6mb 54f 53f
1:50 6.5ft 8s 7s 7 9 mph 1017.7mb 54f 53f
1:20 6.5ft 8s 6s 7 9 mph 1017.7mb 53f 53f
12:50 7ft 8s 7s 2 4 mph 1017.8mb 53f 53f
12:20 6.5ft 8s 6s 4 7 mph 1017.8mb 53f 52f
11:50 7.5ft 8s 7s 4 7 mph 1018mb 53f 51f
11:20 7ft 7s 7s 4 7 mph 1017.9mb 52f 51f
10:50 7.5ft 8s 7s 4 7 mph 1017.9mb 52f 51f
10:20 7ft 8s 7s 7 9 mph 1018mb 52f 51f
9:50 7ft 8s 7s 7 9 mph 1018mb 52f 51f
9:20 6.5ft 8s 7s 9 11 mph 1017.9mb 52f 50f
8:50 7ft 8s 7s 9 11 mph 1017.9mb 51f 50f
8:20 6.5ft 8s 7s 9 13 mph 1017.6mb 51f 50f
7:50 7ft 9s 8s 11 13 mph 1017.4mb 51f 49f
7:20 6.5ft 10s 8s 13 18 mph 1017.3mb 51f 49f
6:50 6ft 10s 8s 11 13 mph 1017.3mb 51f 49f
6:20 7ft 10s 8s 9 11 mph 1017.1mb 51f 49f
5:50 6ft 9s 8s 7 9 mph 1017.2mb 51f 49f
5:20 6.5ft 9s 7s 4 7 mph 1017.1mb 51f 49f
4:50 6ft 10s 7s 4 7 mph 1017mb 51f 50f
4:20 6.5ft 8s 7s 4
mph
1016.9mb 52f 49f
3:50 7ft 8s 7s 7 9 mph 1016.6mb 52f 49f
3:20 6.5ft 10s 7s 9
mph
1016.7mb 52f 51f
2:50 6.5ft 10s 7s 9 11 mph 1016.7mb 52f 51f
2:20 8ft 8s 7s 9 11 mph 1016.6mb 52f 51f
1:50 8ft 9s 7s 7 9 mph 1016.6mb 52f 51f
1:20 7ft 8s 7s 7
mph
1016.6mb 52f 51f
12:50 7.5ft 9s 7s 7
mph
1016.5mb 52f 51f
12:20 8ft 8s 7s 7 9 mph 1016.4mb 52f 51f
mié 05/04 11:50 8ft 8s 6s 7
mph
1016.3mb 52f 51f
11:20 8ft 8s 7s 2
mph
1016.4mb 52f 52f
10:50 8ft 8s 7s 2 4 mph 1016.5mb 52f 52f
10:20 8ft 7s 6s 4 7 mph 1016.7mb 52f 52f
9:50 7ft 9s 6s 7 9 mph 1016.5mb 52f 52f
9:20 8ft 7s 7s 9 11 mph 1016.4mb 52f 52f
8:50 7.5ft 9s 7s 9 13 mph 1016.2mb 52f 53f
8:20 7.5ft 9s 7s 9 13 mph 1016.3mb 52f 53f
7:50 7ft 8s 7s 9 11 mph 1016.3mb 52f 53f
7:20 6.5ft 8s 7s 9 13 mph 1016.2mb 53f 53f
6:50 6ft 10s 7s 7 11 mph 1016.3mb 52f 53f
6:20 6ft 10s 7s 7 9 mph 1016.6mb 53f 53f
5:50 6ft 10s 7s 7 9 mph 1016.8mb 53f 53f
5:20 6.5ft 10s 7s 9 11 mph 1016.9mb 53f 53f
4:50 6.5ft 10s 7s 9 13 mph 1017mb 53f 53f
4:20 6.5ft 9s 7s 11 13 mph 1017.2mb 53f 53f
3:50 6ft 9s 6s 11 13 mph 1017.3mb 53f 53f
3:20 6.5ft 10s 7s 9 11 mph 1017.6mb 53f 53f
2:50 6ft 10s 7s 9 11 mph 1017.7mb 53f 53f
2:20 6ft 10s 6s 9
mph
1017.9mb 53f 52f
1:50 6.5ft 9s 6s 7 9 mph 1018mb 53f 52f
1:20 6ft 7s 6s 9 11 mph 1018mb 52f 52f
12:20 7ft 7s 6s 9 11 mph 1018.2mb 52f 51f
11:50 6.5ft 7s 6s 9 11 mph 1018.4mb 52f 51f
11:20 7ft 7s 6s 4 7 mph 1018.4mb 52f 51f
10:50 7ft 7s 6s 4 7 mph 1018.6mb 52f 51f
10:20 6.5ft 8s 6s 2 4 mph 1018.4mb 52f 50f
9:50 7ft 7s 7s 2 4 mph 1018.4mb 52f 51f
9:20 7ft 8s 7s  -  2 mph 1018.6mb 51f 51f
8:50 7ft 8s 7s 2 4 mph 1018.6mb 51f 50f
8:20 7ft 8s 7s 2 4 mph 1018.7mb 51f 50f
7:50 7ft 8s 7s 4
mph
1018.9mb 51f 50f
7:20 7ft 7s 7s 4 7 mph 1018.9mb 51f 49f
6:50 7ft 9s 7s 7 9 mph 1018.9mb 51f 50f
6:20 6.5ft 9s 7s 7 9 mph 1019mb 51f 50f
5:50 6.5ft 10s 7s 9 11 mph 1019mb 51f 50f
5:20 7ft 11s 7s 13 16 mph 1019mb 51f 50f
4:50 7ft 11s 7s 9 11 mph 1019.2mb 51f 50f
4:20 7ft 10s 7s 13 16 mph 1019.3mb 51f 51f
3:50 7ft 10s 7s 13 18 mph 1019.3mb 51f 51f
3:20 7ft 11s 6s 16 20 mph 1019.3mb 51f 51f
2:50 7ft 10s 7s 16 20 mph 1019.3mb 51f 51f
2:20 7ft 11s 6s 18 22 mph 1019.4mb 51f 51f
1:50 7ft 11s 6s 20 25 mph 1019.5mb 51f 51f
1:20 6ft 11s 6s 18 22 mph 1019.5mb 51f 52f
12:50 6.5ft 10s 6s 18 22 mph 1020mb 51f 52f
12:20 6.5ft 11s 6s 16 18 mph 1020.4mb 51f 52f
mar 05/03 11:50 7ft 10s 6s 18 22 mph 1020.5mb 51f 52f
11:20 7ft 10s 6s 18 20 mph 1020.5mb 51f 52f
10:50 6.5ft 9s 6s 18 22 mph 1020.7mb 51f 52f
10:20 7ft 11s 7s 16 20 mph 1020.6mb 51f 52f
9:50 7ft 9s 6s 18 20 mph 1020.4mb 51f 52f
9:20 7ft 11s 7s 13 18 mph 1020.4mb 52f 52f
8:50 7ft 11s 7s 16 18 mph 1020.3mb 52f 52f
8:20 7ft 11s 7s 16 20 mph 1019.9mb 52f 52f
7:50 6.5ft 10s 7s 16 20 mph 1019.7mb 52f 52f
7:20 7ft 11s 7s 16 18 mph 1019.6mb 52f 52f
6:50 7ft 11s 7s 13 16 mph 1020mb 52f 53f
6:20 6ft 11s 7s 13 16 mph 1020.1mb 52f 53f
5:50 7ft 11s 8s 13 18 mph 1019.9mb 53f 53f
5:20 7ft 11s 7s 13 16 mph 1020.1mb 53f 53f
4:50 7ft 11s 8s 13 18 mph 1020mb 53f 53f
4:20 7ft 11s 8s 13 16 mph 1019.7mb 53f 53f
3:50 7ft 11s 8s 13 16 mph 1019.5mb 53f 53f
3:20 6.5ft 11s 7s 9 13 mph 1019.6mb 53f 54f
2:50 6.5ft 11s 7s 7 9 mph 1019.6mb 53f 53f
2:20 7ft 12s 8s 7 9 mph 1019.3mb 53f 53f
1:50 6.5ft 11s 7s 4 7 mph 1019.1mb 53f 53f
1:20 7.5ft 12s 8s 7 9 mph 1019.1mb 53f 53f
12:50 7ft 12s 8s 7 9 mph 1018.8mb 53f 53f
12:20 6.5ft 11s 7s 7 9 mph 1018.6mb 53f 53f
11:50 7ft 12s 7s 7 9 mph 1018.4mb 53f 53f
11:20 6.5ft 11s 7s 4 7 mph 1018.5mb 53f 53f
10:50 7ft 11s 8s 4 7 mph 1018.2mb 53f 53f
10:20 7ft 11s 8s 11 13 mph 1018mb 53f 53f
9:50 7ft 11s 8s 9 13 mph 1017.8mb 53f 53f
9:20 6.5ft 10s 8s 2
mph
1017.2mb 53f 53f
8:50 7ft 11s 8s 2 4 mph 1017.1mb 53f 53f
8:20 7ft 11s 8s 4 7 mph 1016.6mb 52f 53f
7:50 7ft 11s 9s 2 4 mph 1016.8mb 52f 53f
7:20 7ft 11s 9s 4 9 mph 1016.9mb 53f 53f
6:20 7ft 11s 10s 7 9 mph 1017.1mb 53f 53f
5:50 7ft 11s 9s 4 7 mph 1016.8mb 53f 53f
5:20 8ft 11s 10s 4 7 mph 1016.4mb 53f 53f
4:50 7ft 12s 10s 9 11 mph 1016.9mb 53f 53f
4:20 8ft 12s 10s 7 9 mph 1016.6mb 53f 53f
3:50 6ft 12s 9s 2 4 mph 1016.4mb 53f 54f
3:20 8ft 12s 10s 9 13 mph 1016.6mb 53f 53f
2:50 6.5ft 12s 10s 11 16 mph 1016.3mb 53f 53f
2:20 7ft 11s 10s 11 16 mph 1016.1mb 53f 54f
1:50 7ft 13s 10s 7 11 mph 1015.8mb 53f 54f
1:20 7ft 13s 10s 11 18 mph 1015.9mb 53f 54f
12:50 7ft 13s 10s 11 13 mph 1015.6mb 53f 54f
12:20 6ft 13s 9s 7 11 mph 1015.2mb 53f 54f
lun 05/02 11:50 7ft 13s 9s 7 11 mph 1015.4mb 53f 54f
11:20 6.5ft 13s 9s 7 9 mph 1014.8mb 53f 54f
10:50 7ft 13s 9s 7 9 mph 1014.6mb 53f 55f
10:20 7ft 13s 9s 4 7 mph 1014.6mb 53f 55f
9:50 7ft 13s 8s 7 9 mph 1014.8mb 53f 55f
9:20 6.5ft 14s 8s 7 11 mph 1014.5mb 53f 56f
8:50 7ft 13s 9s 13 18 mph 1014.3mb 53f 56f
8:20 7ft 11s 9s 9 11 mph 1014mb 53f 56f
7:50 6.5ft 14s 9s 13 16 mph 1013.8mb 53f 58f
7:20 6.5ft 10s 9s 9 13 mph 1013.8mb 54f 58f
6:50 7ft 12s 9s 9 11 mph 1013.6mb 55f 59f
6:20 6.5ft 13s 9s 7 9 mph 1013.6mb 55f 61f
5:50 6.5ft 13s 9s 4 7 mph 1013.8mb 55f 59f
5:20 6.5ft 14s 10s 4 9 mph 1013.7mb 55f 62f
4:50 7.5ft 13s 10s 7 13 mph 1013.4mb 55f 59f
4:20 6.5ft 11s 10s 4 9 mph 1013.5mb 55f 62f